createdAt,value
2023-01-18T00:01:36.117Z,9.60
2023-01-18T00:04:05.120Z,9.73
2023-01-18T00:06:34.058Z,9.20
2023-01-18T00:09:03.029Z,10.95
2023-01-18T00:11:31.967Z,10.02
2023-01-18T00:14:02.918Z,11.27
2023-01-18T00:16:33.401Z,10.20
2023-01-18T00:19:02.510Z,11.55
2023-01-18T00:21:31.628Z,10.50
2023-01-18T00:24:00.627Z,9.18
2023-01-18T00:26:29.589Z,10.43
2023-01-18T00:28:58.535Z,9.75
2023-01-18T00:31:27.555Z,10.27
2023-01-18T00:33:57.987Z,10.43
2023-01-18T00:36:27.438Z,11.35
2023-01-18T00:38:56.570Z,11.68
2023-01-18T00:41:25.627Z,10.27
2023-01-18T00:43:53.947Z,11.73
2023-01-18T00:46:25.051Z,9.50
2023-01-18T00:48:54.386Z,10.88
2023-01-18T00:51:26.508Z,10.05
2023-01-18T00:53:55.448Z,10.48
2023-01-18T00:56:24.691Z,10.10
2023-01-18T00:58:53.731Z,10.57
2023-01-18T01:01:22.951Z,10.88
2023-01-18T01:04:09.128Z,10.02
2023-01-18T01:06:45.909Z,11.77
2023-01-18T01:09:18.374Z,9.90
2023-01-18T01:12:02.202Z,10.20
2023-01-18T01:14:48.938Z,11.55
2023-01-18T01:17:35.108Z,11.15
2023-01-18T01:20:21.861Z,9.63
2023-01-18T01:23:09.503Z,9.68
2023-01-18T01:25:55.694Z,10.38
2023-01-18T01:28:25.026Z,9.50
2023-01-18T01:30:58.488Z,9.95
2023-01-18T01:33:27.553Z,9.77
2023-01-18T01:35:57.994Z,9.70
2023-01-18T01:38:28.802Z,9.25
2023-01-18T01:40:59.333Z,9.45
2023-01-18T01:43:46.814Z,8.82
2023-01-18T01:46:36.419Z,10.20
2023-01-18T01:49:11.424Z,9.65
2023-01-18T01:51:43.756Z,9.40
2023-01-18T01:54:19.488Z,9.20
2023-01-18T01:56:50.541Z,8.25
2023-01-18T01:59:20.300Z,9.05
2023-01-18T02:01:49.929Z,8.30
2023-01-18T02:04:20.053Z,8.35
2023-01-18T02:06:49.038Z,9.77
2023-01-18T02:09:23.393Z,8.35
2023-01-18T02:11:54.333Z,9.73
2023-01-18T02:14:27.252Z,9.23
2023-01-18T02:17:09.960Z,9.02
2023-01-18T02:20:20.044Z,9.30
2023-01-18T02:23:18.690Z,9.18
2023-01-18T02:26:16.364Z,8.80
2023-01-18T02:28:52.040Z,8.75
2023-01-18T02:31:25.137Z,8.07
2023-01-18T02:34:03.982Z,9.13
2023-01-18T02:36:39.459Z,9.75
2023-01-18T02:39:23.332Z,8.82
2023-01-18T02:42:19.636Z,7.97
2023-01-18T02:45:07.887Z,8.60
2023-01-18T02:47:38.462Z,8.90
2023-01-18T02:50:07.956Z,8.07
2023-01-18T02:52:41.716Z,8.02
2023-01-18T02:55:15.784Z,8.13
2023-01-18T02:57:46.869Z,7.40
2023-01-18T03:00:21.293Z,7.63
2023-01-18T03:02:51.461Z,7.60
2023-01-18T03:05:22.848Z,8.55
2023-01-18T03:07:56.229Z,7.72
2023-01-18T03:10:29.586Z,7.07
2023-01-18T03:13:01.573Z,7.72
2023-01-18T03:15:39.874Z,7.90
2023-01-18T03:18:17.471Z,8.02
2023-01-18T03:20:50.990Z,8.13
2023-01-18T03:23:41.976Z,8.32
2023-01-18T03:26:14.852Z,6.78
2023-01-18T03:29:04.440Z,7.57
2023-01-18T03:31:57.765Z,7.45
2023-01-18T03:34:31.477Z,7.15
2023-01-18T03:37:04.271Z,7.18
2023-01-18T03:39:38.090Z,6.70
2023-01-18T03:42:11.442Z,7.25
2023-01-18T03:44:47.635Z,7.43
2023-01-18T03:47:18.506Z,6.78
2023-01-18T03:49:47.853Z,7.43
2023-01-18T03:52:19.988Z,6.70
2023-01-18T03:54:58.549Z,8.38
2023-01-18T03:57:34.460Z,7.28
2023-01-18T04:00:06.148Z,7.47
2023-01-18T04:02:45.540Z,7.63
2023-01-18T04:05:14.699Z,6.47
2023-01-18T04:07:44.057Z,7.00
2023-01-18T04:10:13.735Z,7.70
2023-01-18T04:12:42.755Z,7.63
2023-01-18T04:15:12.575Z,6.80
2023-01-18T04:17:42.961Z,7.82
2023-01-18T04:20:13.082Z,7.00
2023-01-18T04:22:42.056Z,7.47
2023-01-18T04:25:11.431Z,6.72
2023-01-18T04:27:41.712Z,6.97
2023-01-18T04:30:12.830Z,7.43
2023-01-18T04:32:46.317Z,7.00
2023-01-18T04:35:15.682Z,7.80
2023-01-18T04:37:44.882Z,6.72
2023-01-18T04:40:14.782Z,7.93
2023-01-18T04:42:43.975Z,7.38
2023-01-18T04:45:14.363Z,7.70
2023-01-18T04:47:45.216Z,6.68
2023-01-18T04:50:14.425Z,7.13
2023-01-18T04:52:43.422Z,7.47
2023-01-18T04:55:15.989Z,8.00
2023-01-18T04:57:45.622Z,7.57
2023-01-18T05:00:15.762Z,7.15
2023-01-18T05:02:46.270Z,7.97
2023-01-18T05:05:15.510Z,6.53
2023-01-18T05:07:44.542Z,7.70
2023-01-18T05:10:13.952Z,6.65
2023-01-18T05:12:43.132Z,5.82
2023-01-18T05:15:12.513Z,7.53
2023-01-18T05:17:41.503Z,6.43
2023-01-18T05:20:13.794Z,6.43
2023-01-18T05:22:42.715Z,7.05
2023-01-18T05:25:11.789Z,6.72
2023-01-18T05:27:41.929Z,6.85
2023-01-18T05:30:12.194Z,6.88
2023-01-18T05:32:41.483Z,6.40
2023-01-18T05:35:12.625Z,6.50
2023-01-18T05:37:41.697Z,6.75
2023-01-18T05:40:12.789Z,6.20
2023-01-18T05:42:42.223Z,6.40
2023-01-18T05:45:12.120Z,6.90
2023-01-18T05:47:41.409Z,6.30
2023-01-18T05:50:12.697Z,6.53
2023-01-18T05:52:41.806Z,6.38
2023-01-18T05:55:11.032Z,6.25
2023-01-18T05:57:40.083Z,6.35
2023-01-18T06:00:11.345Z,6.65
2023-01-18T06:02:43.569Z,6.82
2023-01-18T06:05:13.997Z,5.43
2023-01-18T06:07:43.521Z,5.95
2023-01-18T06:10:12.823Z,6.63
2023-01-18T06:12:42.315Z,6.10
2023-01-18T06:15:12.662Z,6.65
2023-01-18T06:17:42.398Z,5.72
2023-01-18T06:20:14.612Z,6.53
2023-01-18T06:22:45.736Z,7.60
2023-01-18T06:25:14.741Z,5.38
2023-01-18T06:27:43.789Z,7.63
2023-01-18T06:30:13.183Z,5.95
2023-01-18T06:32:48.658Z,6.28
2023-01-18T06:35:20.508Z,6.35
2023-01-18T06:37:49.495Z,6.72
2023-01-18T06:40:18.956Z,6.85
2023-01-18T06:42:49.658Z,6.35
2023-01-18T06:45:22.135Z,6.20
2023-01-18T06:47:51.102Z,6.63
2023-01-18T06:50:21.837Z,6.43
2023-01-18T06:52:51.603Z,6.20
2023-01-18T06:55:21.310Z,6.25
2023-01-18T06:57:50.342Z,6.20
2023-01-18T07:00:20.171Z,6.40
2023-01-18T07:02:49.170Z,7.05
2023-01-18T07:05:18.314Z,7.20
2023-01-18T07:07:48.816Z,6.32
2023-01-18T07:10:18.427Z,5.68
2023-01-18T07:12:49.091Z,6.90
2023-01-18T07:15:22.736Z,6.50
2023-01-18T07:17:52.134Z,6.50
2023-01-18T07:20:21.550Z,7.35
2023-01-18T07:22:53.936Z,7.13
2023-01-18T07:25:23.346Z,6.80
2023-01-18T07:27:52.443Z,7.78
2023-01-18T07:30:21.631Z,7.18
2023-01-18T07:32:52.704Z,6.97
2023-01-18T07:35:23.311Z,6.85
2023-01-18T07:37:54.323Z,6.25
2023-01-18T07:40:23.677Z,7.03
2023-01-18T07:42:59.202Z,7.22
2023-01-18T07:45:28.607Z,6.15
2023-01-18T07:47:57.906Z,6.75
2023-01-18T07:50:27.207Z,7.72
2023-01-18T07:52:58.132Z,7.28
2023-01-18T07:55:27.273Z,6.65
2023-01-18T07:57:57.384Z,6.68
2023-01-18T08:00:27.155Z,6.30
2023-01-18T08:02:59.080Z,6.85
2023-01-18T08:05:29.917Z,7.13
2023-01-18T08:08:00.509Z,7.75
2023-01-18T08:10:30.773Z,7.10
2023-01-18T08:13:00.214Z,6.95
2023-01-18T08:15:29.871Z,6.90
2023-01-18T08:17:58.931Z,6.25
2023-01-18T08:20:29.117Z,6.65
2023-01-18T08:23:01.396Z,7.05
2023-01-18T08:25:31.878Z,7.15
2023-01-18T08:28:02.517Z,6.72
2023-01-18T08:30:33.386Z,7.05
2023-01-18T08:33:03.642Z,6.68
2023-01-18T08:35:34.926Z,6.85
2023-01-18T08:38:05.377Z,6.90
2023-01-18T08:40:35.063Z,7.93
2023-01-18T08:43:05.164Z,6.95
2023-01-18T08:45:35.511Z,6.63
2023-01-18T08:48:06.905Z,6.72
2023-01-18T08:50:37.319Z,6.75
2023-01-18T08:53:07.806Z,7.68
2023-01-18T08:55:38.132Z,7.43
2023-01-18T08:58:07.779Z,7.32
2023-01-18T09:00:36.825Z,7.28
2023-01-18T09:03:06.975Z,8.15
2023-01-18T09:05:37.337Z,8.23
2023-01-18T09:08:08.526Z,9.07
2023-01-18T09:10:38.888Z,9.00
2023-01-18T09:13:08.069Z,8.27
2023-01-18T09:15:37.128Z,7.78
2023-01-18T09:18:08.299Z,7.00
2023-01-18T09:20:37.551Z,8.23
2023-01-18T09:23:09.841Z,7.78
2023-01-18T09:25:41.181Z,7.55
2023-01-18T09:28:13.172Z,7.47
2023-01-18T09:30:42.201Z,7.57
2023-01-18T09:33:12.502Z,7.70
2023-01-18T09:35:41.668Z,7.32
2023-01-18T09:38:13.060Z,7.18
2023-01-18T09:40:45.384Z,8.40
2023-01-18T09:43:20.291Z,7.07
2023-01-18T09:45:49.367Z,7.07
2023-01-18T09:48:29.471Z,7.88
2023-01-18T09:51:02.384Z,7.03
2023-01-18T09:53:48.849Z,7.43
2023-01-18T09:56:23.320Z,7.47
2023-01-18T09:59:05.876Z,8.18
2023-01-18T10:01:36.671Z,6.53
2023-01-18T10:04:14.293Z,6.13
2023-01-18T10:06:49.065Z,7.07
2023-01-18T10:09:22.455Z,7.13
2023-01-18T10:11:59.815Z,7.10
2023-01-18T10:14:43.181Z,7.25
2023-01-18T10:17:21.946Z,8.25
2023-01-18T10:20:17.083Z,7.25
2023-01-18T10:22:52.317Z,7.75
2023-01-18T10:25:32.753Z,8.10
2023-01-18T10:28:26.311Z,8.35
2023-01-18T10:31:08.652Z,8.43
2023-01-18T10:33:42.323Z,7.63
2023-01-18T10:36:16.374Z,7.30
2023-01-18T10:38:46.768Z,7.05
2023-01-18T10:41:21.792Z,7.55
2023-01-18T10:43:50.802Z,6.68
2023-01-18T10:46:20.778Z,6.82
2023-01-18T10:48:51.256Z,7.55
2023-01-18T10:51:31.312Z,6.68
2023-01-18T10:54:00.392Z,7.28
2023-01-18T10:56:31.175Z,7.10
2023-01-18T10:59:02.243Z,7.35
2023-01-18T11:01:34.816Z,8.18
2023-01-18T11:04:07.756Z,7.68
2023-01-18T11:06:47.410Z,6.55
2023-01-18T11:09:42.028Z,7.18
2023-01-18T11:12:38.396Z,7.80
2023-01-18T11:15:28.695Z,8.35
2023-01-18T11:18:20.254Z,9.15
2023-01-18T11:20:51.698Z,8.32
2023-01-18T11:23:25.577Z,8.07
2023-01-18T11:26:00.842Z,7.75
2023-01-18T11:28:39.492Z,8.30
2023-01-18T11:31:12.078Z,8.45
2023-01-18T11:33:51.241Z,8.65
2023-01-18T11:36:22.249Z,8.15
2023-01-18T11:38:52.337Z,7.68
2023-01-18T11:41:23.746Z,8.35
2023-01-18T11:44:06.394Z,7.13
2023-01-18T11:46:47.326Z,6.95
2023-01-18T11:49:29.549Z,7.78
2023-01-18T11:52:03.165Z,6.88
2023-01-18T11:54:38.948Z,6.88
2023-01-18T11:57:10.830Z,7.80
2023-01-18T11:59:46.397Z,7.72
2023-01-18T12:02:44.048Z,7.05
2023-01-18T12:05:45.999Z,6.57
2023-01-18T12:08:29.680Z,6.72
2023-01-18T12:11:15.509Z,6.70
2023-01-18T12:13:53.092Z,6.20
2023-01-18T12:16:29.444Z,6.47
2023-01-18T12:19:40.055Z,6.18
2023-01-18T12:22:34.956Z,6.47
2023-01-18T12:25:20.700Z,5.47
2023-01-18T12:30:46.365Z,6.30
2023-01-18T12:33:42.771Z,6.03
2023-01-18T12:36:44.887Z,6.25
2023-01-18T12:39:26.043Z,5.93
2023-01-18T12:41:59.822Z,6.63
2023-01-18T12:45:06.502Z,5.57
2023-01-18T12:47:39.461Z,6.28
2023-01-18T12:50:23.173Z,7.20
2023-01-18T12:52:56.180Z,6.15
2023-01-18T12:55:27.030Z,6.80
2023-01-18T12:57:59.906Z,5.47
2023-01-18T13:00:35.500Z,5.28
2023-01-18T13:03:11.160Z,5.90
2023-01-18T13:05:52.899Z,6.07
2023-01-18T13:08:34.759Z,6.47
2023-01-18T13:11:09.662Z,6.63
2023-01-18T13:13:41.031Z,5.55
2023-01-18T13:16:25.991Z,4.90
2023-01-18T13:19:01.559Z,5.88
2023-01-18T13:21:46.019Z,6.50
2023-01-18T13:24:25.071Z,5.57
2023-01-18T13:26:54.722Z,6.22
2023-01-18T13:29:29.800Z,6.30
2023-01-18T13:34:32.496Z,6.28
2023-01-18T13:37:14.259Z,6.43
2023-01-18T13:39:48.426Z,6.28
2023-01-18T13:42:27.530Z,6.15
2023-01-18T13:45:17.360Z,5.93
2023-01-18T13:48:07.773Z,6.05
2023-01-18T13:50:47.451Z,5.65
2023-01-18T13:53:31.404Z,5.57
2023-01-18T13:56:29.756Z,6.37
2023-01-18T13:59:15.863Z,5.72
2023-01-18T14:01:50.845Z,6.53
2023-01-18T14:07:05.045Z,5.97
2023-01-18T14:09:40.155Z,5.45
2023-01-18T14:12:09.962Z,6.45
2023-01-18T14:14:54.734Z,5.05
2023-01-18T14:17:25.490Z,5.95
2023-01-18T14:20:09.240Z,5.63
2023-01-18T14:22:58.982Z,5.45
2023-01-18T14:25:47.610Z,6.00
2023-01-18T14:28:23.417Z,6.45
2023-01-18T14:30:58.719Z,5.75
2023-01-18T14:36:01.198Z,5.05
2023-01-18T14:38:31.664Z,5.38
2023-01-18T14:41:07.012Z,5.63
2023-01-18T14:43:39.036Z,5.32
2023-01-18T14:46:12.787Z,5.13
2023-01-18T14:48:49.125Z,6.25
2023-01-18T14:51:20.155Z,5.78
2023-01-18T14:53:54.088Z,5.53
2023-01-18T14:56:26.257Z,5.53
2023-01-18T14:58:57.439Z,5.88
2023-01-18T15:01:32.432Z,5.95
2023-01-18T15:06:36.951Z,4.53
2023-01-18T15:11:40.006Z,5.32
2023-01-18T15:14:13.313Z,5.72
2023-01-18T15:16:43.628Z,5.45
2023-01-18T15:19:18.525Z,5.70
2023-01-18T15:21:47.997Z,4.53
2023-01-18T15:24:20.007Z,5.18
2023-01-18T15:26:54.365Z,5.13
2023-01-18T15:29:26.341Z,5.32
2023-01-18T15:31:58.131Z,5.57
2023-01-18T15:34:31.637Z,6.15
2023-01-18T15:37:02.348Z,4.80
2023-01-18T15:39:33.155Z,7.03
2023-01-18T15:42:09.002Z,6.18
2023-01-18T15:44:43.429Z,6.45
2023-01-18T15:47:18.012Z,6.88
2023-01-18T15:49:50.789Z,5.70
2023-01-18T15:52:37.618Z,6.50
2023-01-18T15:55:14.451Z,6.15
2023-01-18T15:57:57.753Z,6.25
2023-01-18T16:00:30.410Z,7.03
2023-01-18T16:03:00.039Z,7.18
2023-01-18T16:05:29.548Z,5.60
2023-01-18T16:08:16.808Z,5.65
2023-01-18T16:10:54.276Z,7.57
2023-01-18T16:13:39.635Z,6.22
2023-01-18T16:16:24.182Z,6.57
2023-01-18T16:19:02.747Z,6.15
2023-01-18T16:21:40.681Z,7.85
2023-01-18T16:24:27.502Z,7.53
2023-01-18T16:26:58.166Z,6.55
2023-01-18T16:29:28.935Z,7.25
2023-01-18T16:32:20.677Z,7.75
2023-01-18T16:34:49.793Z,8.50
2023-01-18T16:37:19.357Z,7.60
2023-01-18T16:39:49.141Z,7.18
2023-01-18T16:42:21.757Z,8.13
2023-01-18T16:44:55.584Z,8.30
2023-01-18T16:47:24.753Z,7.85
2023-01-18T16:49:54.432Z,8.98
2023-01-18T16:52:23.538Z,8.48
2023-01-18T16:54:52.594Z,7.85
2023-01-18T16:57:23.726Z,7.88
2023-01-18T16:59:54.404Z,7.93
2023-01-18T17:02:23.495Z,9.30
2023-01-18T17:04:52.612Z,9.05
2023-01-18T17:07:21.970Z,8.82
2023-01-18T17:09:53.246Z,9.35
2023-01-18T17:12:22.491Z,8.30
2023-01-18T17:14:51.682Z,8.38
2023-01-18T17:17:22.155Z,7.90
2023-01-18T17:19:52.161Z,8.95
2023-01-18T17:22:21.187Z,9.02
2023-01-18T17:24:53.511Z,10.02
2023-01-18T17:27:22.666Z,8.98
2023-01-18T17:29:52.331Z,8.23
2023-01-18T17:32:22.792Z,8.68
2023-01-18T17:34:51.936Z,9.70
2023-01-18T17:37:21.082Z,8.82
2023-01-18T17:40:09.471Z,8.77
2023-01-18T17:42:39.233Z,8.27
2023-01-18T17:45:10.190Z,8.45
2023-01-18T17:47:41.771Z,9.27
2023-01-18T17:50:14.426Z,8.07
2023-01-18T17:52:43.607Z,9.10
2023-01-18T17:55:15.281Z,10.32
2023-01-18T17:57:45.077Z,9.18
2023-01-18T18:00:17.451Z,8.50
2023-01-18T18:02:52.455Z,8.95
2023-01-18T18:05:22.665Z,9.13
2023-01-18T18:07:51.860Z,8.32
2023-01-18T18:10:20.963Z,10.20
2023-01-18T18:12:51.556Z,9.05
2023-01-18T18:15:22.414Z,10.00
2023-01-18T18:17:52.973Z,9.60
2023-01-18T18:20:23.001Z,10.85
2023-01-18T18:22:52.149Z,9.15
2023-01-18T18:25:21.319Z,10.05
2023-01-18T18:27:50.492Z,8.82
2023-01-18T18:30:20.050Z,9.20
2023-01-18T18:32:49.057Z,10.35
2023-01-18T18:35:25.587Z,8.93
2023-01-18T18:37:55.811Z,9.57
2023-01-18T18:40:25.892Z,10.23
2023-01-18T18:43:02.278Z,10.02
2023-01-18T18:45:32.612Z,9.82
2023-01-18T18:48:02.127Z,11.15
2023-01-18T18:50:33.000Z,10.65
2023-01-18T18:53:02.440Z,10.38
2023-01-18T18:55:32.529Z,11.45
2023-01-18T18:58:01.778Z,10.57
2023-01-18T19:00:31.181Z,10.05
2023-01-18T19:03:01.469Z,10.63
2023-01-18T19:05:34.572Z,10.27
2023-01-18T19:08:04.145Z,11.18
2023-01-18T19:10:33.967Z,10.32
2023-01-18T19:13:05.022Z,10.70
2023-01-18T19:15:34.352Z,11.52
2023-01-18T19:18:03.364Z,10.93
2023-01-18T19:20:33.818Z,11.23
2023-01-18T19:23:03.450Z,10.93
2023-01-18T19:25:33.251Z,11.30
2023-01-18T19:28:02.272Z,9.88
2023-01-18T19:30:32.871Z,10.15
2023-01-18T19:33:03.247Z,10.70
2023-01-18T19:35:40.694Z,9.35
2023-01-18T19:38:10.028Z,10.43
2023-01-18T19:40:39.340Z,12.15
2023-01-18T19:43:08.421Z,12.60
2023-01-18T19:45:39.240Z,12.02
2023-01-18T19:48:08.288Z,9.98
2023-01-18T19:50:38.807Z,10.98
2023-01-18T19:53:07.907Z,11.60
2023-01-18T19:55:39.572Z,11.10
2023-01-18T19:58:09.444Z,11.68
2023-01-18T20:00:41.487Z,11.18
2023-01-18T20:03:14.807Z,9.48
2023-01-18T20:05:47.862Z,9.60
2023-01-18T20:08:17.121Z,10.63
2023-01-18T20:10:47.403Z,11.07
2023-01-18T20:13:16.492Z,10.95
2023-01-18T20:15:47.569Z,11.50
2023-01-18T20:18:16.595Z,10.90
2023-01-18T20:20:47.126Z,12.43
2023-01-18T20:23:16.192Z,11.27
2023-01-18T20:25:45.187Z,11.15
2023-01-18T20:28:14.529Z,12.73
2023-01-18T20:30:49.103Z,10.80
2023-01-18T20:33:18.604Z,11.90
2023-01-18T20:35:49.048Z,11.48
2023-01-18T20:38:18.110Z,11.05
2023-01-18T20:40:47.462Z,11.75
2023-01-18T20:43:16.436Z,9.75
2023-01-18T20:45:45.441Z,11.93
2023-01-18T20:48:15.043Z,11.63
2023-01-18T20:50:44.051Z,12.10
2023-01-18T20:53:15.844Z,10.95
2023-01-18T20:55:44.871Z,10.88
2023-01-18T20:58:13.860Z,10.48
2023-01-18T21:00:43.011Z,9.48
2023-01-18T21:03:15.436Z,11.00
2023-01-18T21:05:44.686Z,10.57
2023-01-18T21:08:17.537Z,11.68
2023-01-18T21:10:47.186Z,10.88
2023-01-18T21:13:16.337Z,10.88
2023-01-18T21:15:46.711Z,10.95
2023-01-18T21:18:15.693Z,12.23
2023-01-18T21:20:44.864Z,11.07
2023-01-18T21:23:16.315Z,11.05
2023-01-18T21:25:51.113Z,11.23
2023-01-18T21:28:20.647Z,10.73
2023-01-18T21:30:52.243Z,11.35
2023-01-18T21:33:21.520Z,11.20
2023-01-18T21:35:50.598Z,12.18
2023-01-18T21:38:21.145Z,12.75
2023-01-18T21:40:50.337Z,10.57
2023-01-18T21:43:39.265Z,10.70
2023-01-18T21:46:11.474Z,10.52
2023-01-18T21:48:40.445Z,9.45
2023-01-18T21:51:28.289Z,10.52
2023-01-18T21:54:16.844Z,9.40
2023-01-18T21:56:46.444Z,10.77
2023-01-18T21:59:15.803Z,10.45
2023-01-18T22:01:47.989Z,9.45
2023-01-18T22:04:34.947Z,10.18
2023-01-18T22:07:04.450Z,10.05
2023-01-18T22:09:35.223Z,10.77
2023-01-18T22:12:04.178Z,10.05
2023-01-18T22:14:33.576Z,10.13
2023-01-18T22:17:02.660Z,9.80
2023-01-18T22:19:31.672Z,9.98
2023-01-18T22:22:01.143Z,9.38
2023-01-18T22:24:30.427Z,9.52
2023-01-18T22:27:00.904Z,7.63
2023-01-18T22:29:29.991Z,8.85
2023-01-18T22:31:59.101Z,9.23
2023-01-18T22:34:28.163Z,8.25
2023-01-18T22:36:57.904Z,7.88
2023-01-18T22:39:27.265Z,9.05
2023-01-18T22:41:56.261Z,8.98
2023-01-18T22:44:26.648Z,9.10
2023-01-18T22:46:55.657Z,9.20
2023-01-18T22:49:24.701Z,9.63
2023-01-18T22:51:53.801Z,9.35
2023-01-18T22:54:23.950Z,8.50
2023-01-18T22:56:53.017Z,8.65
2023-01-18T22:59:22.047Z,9.05
2023-01-18T23:01:52.438Z,8.40
2023-01-18T23:04:24.394Z,9.02
2023-01-18T23:06:54.793Z,7.05
2023-01-18T23:09:25.341Z,8.35
2023-01-18T23:11:54.354Z,9.25
2023-01-18T23:14:40.698Z,7.82
2023-01-18T23:17:29.894Z,8.75
2023-01-18T23:19:59.026Z,10.10
2023-01-18T23:22:28.460Z,9.55
2023-01-18T23:24:57.488Z,10.27
2023-01-18T23:27:26.670Z,8.73
2023-01-18T23:29:58.840Z,8.68
2023-01-18T23:32:30.755Z,8.95
2023-01-18T23:35:01.358Z,9.77
2023-01-18T23:37:30.342Z,9.40
2023-01-18T23:40:16.550Z,9.52
2023-01-18T23:43:04.042Z,9.30
2023-01-18T23:45:50.677Z,9.48
2023-01-18T23:48:38.870Z,9.10
2023-01-18T23:51:27.756Z,7.38
2023-01-18T23:54:17.941Z,7.85
2023-01-18T23:56:48.560Z,7.90
2023-01-18T23:59:17.616Z,8.77
